sensor_id;sensor_type;location;lat;lon;timestamp;P1;durP1;ratioP1;P2;durP2;ratioP2
29254;SDS011;16277;48.890;2.306;2023-04-24T00:02:48;6.73;;;1.87;;
29254;SDS011;16277;48.890;2.306;2023-04-24T00:17:53;5.37;;;2.13;;
29254;SDS011;16277;48.890;2.306;2023-04-24T00:32:58;7.37;;;2.50;;
29254;SDS011;16277;48.890;2.306;2023-04-24T00:48:03;3.07;;;2.57;;
29254;SDS011;16277;48.890;2.306;2023-04-24T01:03:08;7.07;;;2.60;;
29254;SDS011;16277;48.890;2.306;2023-04-24T01:18:14;8.40;;;3.30;;
29254;SDS011;16277;48.890;2.306;2023-04-24T01:33:18;11.67;;;2.60;;
29254;SDS011;16277;48.890;2.306;2023-04-24T01:48:26;11.60;;;3.17;;
29254;SDS011;16277;48.890;2.306;2023-04-24T02:03:31;9.23;;;2.90;;
29254;SDS011;16277;48.890;2.306;2023-04-24T02:18:36;11.13;;;3.60;;
29254;SDS011;16277;48.890;2.306;2023-04-24T02:33:40;5.00;;;2.40;;
29254;SDS011;16277;48.890;2.306;2023-04-24T02:48:45;6.43;;;2.70;;
29254;SDS011;16277;48.890;2.306;2023-04-24T03:03:49;5.60;;;2.73;;
29254;SDS011;16277;48.890;2.306;2023-04-24T03:18:54;6.33;;;2.53;;
29254;SDS011;16277;48.890;2.306;2023-04-24T03:34:01;4.20;;;3.20;;
29254;SDS011;16277;48.890;2.306;2023-04-24T03:49:07;6.17;;;2.80;;
29254;SDS011;16277;48.890;2.306;2023-04-24T04:04:16;5.23;;;2.97;;
29254;SDS011;16277;48.890;2.306;2023-04-24T04:19:21;4.67;;;3.53;;
29254;SDS011;16277;48.890;2.306;2023-04-24T04:34:26;7.00;;;2.63;;
29254;SDS011;16277;48.890;2.306;2023-04-24T04:49:33;6.23;;;3.50;;
29254;SDS011;16277;48.890;2.306;2023-04-24T05:04:38;8.63;;;3.50;;
29254;SDS011;16277;48.890;2.306;2023-04-24T05:19:43;12.50;;;4.40;;
29254;SDS011;16277;48.890;2.306;2023-04-24T05:34:50;6.00;;;4.10;;
29254;SDS011;16277;48.890;2.306;2023-04-24T05:49:55;10.47;;;4.43;;
29254;SDS011;16277;48.890;2.306;2023-04-24T06:04:59;8.47;;;4.23;;
29254;SDS011;16277;48.890;2.306;2023-04-24T06:20:06;4.93;;;4.47;;
29254;SDS011;16277;48.890;2.306;2023-04-24T06:35:11;5.63;;;5.27;;
29254;SDS011;16277;48.890;2.306;2023-04-24T06:50:15;10.60;;;5.63;;
29254;SDS011;16277;48.890;2.306;2023-04-24T07:05:20;6.97;;;6.30;;
29254;SDS011;16277;48.890;2.306;2023-04-24T07:20:25;12.40;;;6.17;;
29254;SDS011;16277;48.890;2.306;2023-04-24T07:35:30;7.10;;;6.30;;
29254;SDS011;16277;48.890;2.306;2023-04-24T07:50:35;14.60;;;6.83;;
29254;SDS011;16277;48.890;2.306;2023-04-24T08:05:39;12.97;;;7.43;;
29254;SDS011;16277;48.890;2.306;2023-04-24T08:20:45;23.23;;;8.90;;
29254;SDS011;16277;48.890;2.306;2023-04-24T08:35:50;13.03;;;8.07;;
29254;SDS011;16277;48.890;2.306;2023-04-24T08:50:55;15.10;;;8.37;;
29254;SDS011;16277;48.890;2.306;2023-04-24T09:06:00;11.97;;;8.43;;
29254;SDS011;16277;48.890;2.306;2023-04-24T09:21:07;7.43;;;6.27;;
29254;SDS011;16277;48.890;2.306;2023-04-24T09:36:13;11.97;;;7.27;;
29254;SDS011;16277;48.890;2.306;2023-04-24T09:51:21;10.60;;;7.70;;
29254;SDS011;16277;48.890;2.306;2023-04-24T10:06:37;15.20;;;8.37;;
29254;SDS011;16277;48.890;2.306;2023-04-24T10:21:42;7.20;;;6.60;;
29254;SDS011;16277;48.890;2.306;2023-04-24T10:36:50;10.67;;;6.70;;
29254;SDS011;16277;48.890;2.306;2023-04-24T10:52:01;7.47;;;5.50;;
29254;SDS011;16277;48.890;2.306;2023-04-24T11:07:08;6.97;;;6.47;;
29254;SDS011;16277;48.890;2.306;2023-04-24T11:22:14;5.30;;;4.83;;
29254;SDS011;16277;48.890;2.306;2023-04-24T11:37:24;8.97;;;5.60;;
29254;SDS011;16277;48.890;2.306;2023-04-24T11:52:30;40.63;;;6.00;;
29254;SDS011;16277;48.890;2.306;2023-04-24T12:07:41;3.77;;;3.67;;
29254;SDS011;16277;48.890;2.306;2023-04-24T12:22:47;37.73;;;4.27;;
29254;SDS011;16277;48.890;2.306;2023-04-24T12:37:56;3.50;;;3.27;;
29254;SDS011;16277;48.890;2.306;2023-04-24T12:53:09;4.93;;;2.00;;
29254;SDS011;16277;48.890;2.306;2023-04-24T13:08:14;2.10;;;1.90;;
29254;SDS011;16277;48.890;2.306;2023-04-24T13:23:18;5.43;;;2.67;;
29254;SDS011;16277;48.890;2.306;2023-04-24T13:38:23;3.80;;;1.90;;
29254;SDS011;16277;48.890;2.306;2023-04-24T13:53:27;2.87;;;2.03;;
29254;SDS011;16277;48.890;2.306;2023-04-24T14:08:32;4.47;;;1.70;;
29254;SDS011;16277;48.890;2.306;2023-04-24T14:23:36;9.10;;;1.60;;
29254;SDS011;16277;48.890;2.306;2023-04-24T14:38:41;0.80;;;0.80;;
29254;SDS011;16277;48.890;2.306;2023-04-24T14:53:45;23.33;;;1.77;;
29254;SDS011;16277;48.890;2.306;2023-04-24T15:08:50;5.60;;;1.87;;
29254;SDS011;16277;48.890;2.306;2023-04-24T15:23:54;0.83;;;0.80;;
29254;SDS011;16277;48.890;2.306;2023-04-24T15:38:59;0.93;;;0.93;;
29254;SDS011;16277;48.890;2.306;2023-04-24T15:54:08;4.40;;;2.00;;
29254;SDS011;16277;48.890;2.306;2023-04-24T16:09:12;1.00;;;1.00;;
29254;SDS011;16277;48.890;2.306;2023-04-24T16:24:17;1.63;;;1.50;;
29254;SDS011;16277;48.890;2.306;2023-04-24T16:39:23;3.20;;;2.40;;
29254;SDS011;16277;48.890;2.306;2023-04-24T16:54:28;1.47;;;1.33;;
29254;SDS011;16277;48.890;2.306;2023-04-24T17:09:36;2.17;;;2.07;;
29254;SDS011;16277;48.890;2.306;2023-04-24T17:24:40;3.27;;;2.10;;
29254;SDS011;16277;48.890;2.306;2023-04-24T17:39:45;2.20;;;2.10;;
29254;SDS011;16277;48.890;2.306;2023-04-24T17:54:49;3.60;;;1.87;;
29254;SDS011;16277;48.890;2.306;2023-04-24T18:09:54;4.70;;;1.77;;
29254;SDS011;16277;48.890;2.306;2023-04-24T18:24:58;6.90;;;2.67;;
29254;SDS011;16277;48.890;2.306;2023-04-24T18:40:03;3.23;;;3.03;;
29254;SDS011;16277;48.890;2.306;2023-04-24T18:55:08;3.93;;;2.70;;
29254;SDS011;16277;48.890;2.306;2023-04-24T19:10:13;2.50;;;2.40;;
29254;SDS011;16277;48.890;2.306;2023-04-24T19:25:18;3.47;;;3.23;;
29254;SDS011;16277;48.890;2.306;2023-04-24T19:40:23;4.17;;;3.87;;
29254;SDS011;16277;48.890;2.306;2023-04-24T19:55:28;2.87;;;2.77;;
29254;SDS011;16277;48.890;2.306;2023-04-24T20:10:33;8.03;;;3.37;;
29254;SDS011;16277;48.890;2.306;2023-04-24T20:25:39;4.97;;;3.53;;
29254;SDS011;16277;48.890;2.306;2023-04-24T20:40:43;5.27;;;4.60;;
29254;SDS011;16277;48.890;2.306;2023-04-24T20:55:59;5.53;;;5.17;;
29254;SDS011;16277;48.890;2.306;2023-04-24T21:11:04;3.97;;;3.27;;
29254;SDS011;16277;48.890;2.306;2023-04-24T21:26:09;3.10;;;2.83;;
29254;SDS011;16277;48.890;2.306;2023-04-24T21:41:13;4.00;;;3.70;;
29254;SDS011;16277;48.890;2.306;2023-04-24T21:56:18;4.03;;;3.63;;
29254;SDS011;16277;48.890;2.306;2023-04-24T22:11:23;5.00;;;3.83;;
29254;SDS011;16277;48.890;2.306;2023-04-24T22:26:29;3.40;;;3.20;;
29254;SDS011;16277;48.890;2.306;2023-04-24T22:41:33;3.30;;;3.20;;
29254;SDS011;16277;48.890;2.306;2023-04-24T22:56:38;4.73;;;2.77;;
29254;SDS011;16277;48.890;2.306;2023-04-24T23:11:42;3.47;;;3.23;;
29254;SDS011;16277;48.890;2.306;2023-04-24T23:26:47;3.40;;;3.20;;
29254;SDS011;16277;48.890;2.306;2023-04-24T23:41:52;2.93;;;2.57;;
29254;SDS011;16277;48.890;2.306;2023-04-24T23:56:57;3.40;;;2.23;;
